Viking — WDB5552 — position and weather

sailwx.info

Track history (hours):
 
Tides and Currents Weather Stations Pressure Air Temp Water Temp Dewpoint Dewpoint Depression Visibility Wind Speed Wind Dir Waves Ship Positions

Viking

Owner: Kirby Offshore Marine, LLC, Staten Island, NY. More information available from US FCC via Universal Licensing System and Coast Guard Vessel Documentation Center.

Last reported at 2018-Feb-18 17:53 UTC. Time now 2018-Feb-18 18:27 UTC.
Position N 39°40' W 074°02'.

Type: Tug. MMSI: 366359910.

Date/timePositionNaut miles runAvg speedWind from/ knotsBaromVisibWave heightAir tempDewpointWater temp
2018-Feb-18 17:53N 39°40' W 074°02'50 9.4
2018-Feb-18 12:35N 40°30' W 073°56'2 8.2
2018-Feb-18 12:21N 40°31' W 073°58'3 8.0
2018-Feb-18 12:00N 40°32' W 074°01'5 9.2
2018-Feb-18 11:30N 40°36' W 074°03'5 9.3
2018-Feb-18 10:59N 40°41' W 074°02'511.1
2018-Feb-18 10:31N 40°46' W 074°00'611.6
2018-Feb-18 10:00N 40°52' W 073°57'  
2018-Feb-15 16:54N 40°54' W 073°55'3 7.2
2018-Feb-15 16:30N 40°51' W 073°57'4 7.8
2018-Feb-15 16:00N 40°47' W 073°59'4 7.8
2018-Feb-15 15:30N 40°44' W 074°01'4 7.8
2018-Feb-15 15:00N 40°40' W 074°03'4 7.0
2018-Feb-15 14:30N 40°39' W 074°07'4 7.3
2018-Feb-15 14:00N 40°38' W 074°12'3 5.8
2018-Feb-15 13:29N 40°35' W 074°12'0 0.1
2018-Feb-15 11:50N 40°35' W 074°12'0 0.0
2018-Feb-15 09:38N 40°35' W 074°12'0 0.0
2018-Feb-15 08:20N 40°35' W 074°12'0 0.0
2018-Feb-15 07:56N 40°35' W 074°12'0 0.0
2018-Feb-15 07:26N 40°35' W 074°12'0 0.0
2018-Feb-15 04:50N 40°35' W 074°12'0 0.0
2018-Feb-15 04:14N 40°35' W 074°13'0 0.0
2018-Feb-15 03:53N 40°35' W 074°13'0 1.2
2018-Feb-15 03:30N 40°35' W 074°13'2 0.6
2018-Feb-15 00:12N 40°34' W 074°14'0 0.0
2018-Feb-14 23:45N 40°34' W 074°14'0 0.0
2018-Feb-14 23:30N 40°34' W 074°14'0 0.0
2018-Feb-14 22:59N 40°34' W 074°14'2 2.7
2018-Feb-14 22:17N 40°35' W 074°12'310.5
2018-Feb-14 21:59N 40°38' W 074°12'2 3.4
2018-Feb-14 21:30N 40°39' W 074°10'0 0.0
2018-Feb-14 21:00N 40°38' W 074°10'0 0.0
2018-Feb-14 20:30N 40°39' W 074°10'0 0.0
2018-Feb-14 20:00N 40°39' W 074°10'0 0.0
2018-Feb-14 19:30N 40°39' W 074°10'0 0.0
2018-Feb-14 19:00N 40°39' W 074°10'0 0.0
2018-Feb-14 18:30N 40°39' W 074°10'0 0.0
2018-Feb-14 18:00N 40°39' W 074°10'0 0.0
2018-Feb-14 17:30N 40°39' W 074°10'0 0.0
2018-Feb-14 17:00N 40°39' W 074°10'0 0.0
2018-Feb-14 16:30N 40°39' W 074°10'0 0.0
2018-Feb-14 16:00N 40°39' W 074°10'0 0.0
2018-Feb-14 15:30N 40°39' W 074°10'0 0.0
2018-Feb-14 15:00N 40°39' W 074°10'0 0.0
2018-Feb-14 14:30N 40°39' W 074°10'0 0.0
2018-Feb-14 14:00N 40°39' W 074°10'0 0.0
2018-Feb-14 13:30N 40°39' W 074°10'0 0.0
2018-Feb-14 12:58N 40°39' W 074°10'0 0.0
2018-Feb-14 12:30N 40°39' W 074°10'0 0.0
2018-Feb-14 12:00N 40°39' W 074°10'1 2.6
2018-Feb-14 11:30N 40°38' W 074°12'5 9.5
2018-Feb-14 10:59N 40°34' W 074°13'1 1.9
2018-Feb-14 10:29N 40°34' W 074°14'0 0.0
2018-Feb-14 09:59N 40°34' W 074°14'0 0.0
2018-Feb-14 09:28N 40°34' W 074°14'0 0.0
2018-Feb-14 09:00N 40°34' W 074°14'0 0.0
2018-Feb-14 08:26N 40°34' W 074°14'0 0.0
2018-Feb-14 07:59N 40°34' W 074°14'0 0.0
2018-Feb-14 07:30N 40°34' W 074°14'0 0.0
2018-Feb-14 06:58N 40°34' W 074°14'0 0.0
2018-Feb-14 06:30N 40°34' W 074°14'0 0.0
2018-Feb-14 05:59N 40°34' W 074°14'0 0.0
2018-Feb-14 05:30N 40°34' W 074°14'0 0.0
2018-Feb-14 04:59N 40°34' W 074°14'0 0.0
2018-Feb-14 04:28N 40°34' W 074°14'0 0.0
2018-Feb-14 03:59N 40°34' W 074°14'0 0.0
2018-Feb-14 03:28N 40°34' W 074°14'0 0.0
2018-Feb-14 03:00N 40°34' W 074°14'3 6.9
2018-Feb-14 02:30N 40°37' W 074°12'4 8.8
2018-Feb-14 02:00N 40°39' W 074°07'0 0.9
2018-Feb-14 01:30N 40°39' W 074°07'0 0.0
2018-Feb-14 01:00N 40°39' W 074°07'0 0.0
2018-Feb-14 00:30N 40°39' W 074°07'0 0.0
2018-Feb-13 23:59N 40°39' W 074°07'0 0.7
2018-Feb-13 23:30N 40°39' W 074°07'5 9.1
2018-Feb-13 23:00N 40°37' W 074°12'11 3.6
2018-Feb-13 19:58N 40°29' W 074°03'187 7.7
2018-Feb-12 19:48N 42°14' W 070°37'4 9.2
2018-Feb-12 19:24N 42°16' W 070°41'4 9.2
2018-Feb-12 18:56N 42°19' W 070°45'4 9.2
2018-Feb-12 18:30N 42°22' W 070°49'4 8.4
2018-Feb-12 17:59N 42°22' W 070°55'4 8.4
2018-Feb-12 17:28N 42°20' W 071°00'3 4.5
2018-Feb-12 16:51N 42°23' W 071°02'1 2.5
2018-Feb-12 16:29N 42°24' W 071°01'0 0.0
2018-Feb-12 15:52N 42°24' W 071°01'0 0.0
2018-Feb-12 15:31N 42°24' W 071°01'0 0.1
2018-Feb-12 15:00N 42°24' W 071°01'0 0.0
2018-Feb-12 14:30N 42°24' W 071°01'0 0.0
2018-Feb-12 14:00N 42°24' W 071°01'0 0.0
2018-Feb-12 13:30N 42°24' W 071°01'0 0.0
2018-Feb-12 13:00N 42°24' W 071°01'0 0.0
2018-Feb-12 12:30N 42°24' W 071°01'0 0.0
2018-Feb-12 12:00N 42°24' W 071°01'0 0.0
2018-Feb-12 11:30N 42°24' W 071°01'0 0.0
2018-Feb-12 11:00N 42°24' W 071°01'0 0.0
2018-Feb-12 10:30N 42°24' W 071°01'0 0.0
2018-Feb-12 10:00N 42°24' W 071°01'0 0.0
2018-Feb-12 09:30N 42°24' W 071°01'0 0.0
2018-Feb-12 09:00N 42°24' W 071°01'0 0.0
2018-Feb-12 08:30N 42°24' W 071°01'0 0.0
2018-Feb-12 08:01N 42°24' W 071°01'0 0.0
2018-Feb-12 07:30N 42°24' W 071°01'0 0.0
2018-Feb-12 07:00N 42°24' W 071°01'0 0.0
2018-Feb-12 06:31N 42°24' W 071°01'0 0.0
2018-Feb-12 06:00N 42°24' W 071°01'0 0.0
2018-Feb-12 05:30N 42°24' W 071°01'0 0.0
2018-Feb-12 05:01N 42°24' W 071°01'0 0.0
2018-Feb-12 04:30N 42°24' W 071°01'0 0.0
2018-Feb-12 04:01N 42°24' W 071°01'0 0.0
2018-Feb-12 03:30N 42°24' W 071°01'0 0.0
2018-Feb-12 03:00N 42°24' W 071°01'0 0.0
2018-Feb-12 02:31N 42°24' W 071°01'0 0.0
2018-Feb-12 02:00N 42°24' W 071°01'0 0.0
2018-Feb-12 01:31N 42°24' W 071°01'0 0.0
2018-Feb-12 01:01N 42°24' W 071°01'0 0.0
2018-Feb-12 00:30N 42°24' W 071°01'0 0.0
2018-Feb-12 00:01N 42°24' W 071°01'0 0.0
2018-Feb-11 23:27N 42°24' W 071°01'0 0.0
2018-Feb-11 22:59N 42°24' W 071°01'0 0.0
2018-Feb-11 22:30N 42°24' W 071°01'0 0.0
2018-Feb-11 22:00N 42°24' W 071°01'0 0.0
2018-Feb-11 21:31N 42°24' W 071°01'0 0.0
2018-Feb-11 21:00N 42°24' W 071°01'0 0.0
2018-Feb-11 20:30N 42°24' W 071°01'0 0.0
2018-Feb-11 20:00N 42°24' W 071°01'0 0.2
2018-Feb-11 19:29N 42°24' W 071°01'1 2.4
2018-Feb-11 18:58N 42°23' W 071°02'2 3.7
2018-Feb-11 18:28N 42°21' W 071°02'4 6.6
2018-Feb-11 17:54N 42°20' W 070°57'3 6.2
2018-Feb-11 17:24N 42°22' W 070°54'3 7.2
2018-Feb-11 17:01N 42°23' W 070°51'4 7.6
2018-Feb-11 16:31N 42°21' W 070°46'4 7.7
2018-Feb-11 16:01N 42°18' W 070°42'4 7.6
2018-Feb-11 15:29N 42°16' W 070°39'179 6.5
2018-Feb-10 11:56N 40°29' W 073°50'3 7.7
2018-Feb-10 11:30N 40°28' W 073°54'3 6.4
2018-Feb-10 11:00N 40°28' W 073°58'4 7.1
2018-Feb-10 10:29N 40°29' W 074°03'11 0.5
2018-Feb-09 13:00N 40°39' W 074°10'1 0.0
2018-Feb-08 20:00N 40°39' W 074°09'7 6.7
2018-Feb-08 19:00N 40°42' W 074°02'  
Track history (hours):
 
Tides and Currents Weather Stations Pressure Air Temp Water Temp Dewpoint Dewpoint Depression Visibility Wind Speed Wind Dir Waves Ship Positions

Viking

Owner: Kirby Offshore Marine, LLC, Staten Island, NY. More information available from US FCC via Universal Licensing System and Coast Guard Vessel Documentation Center.

Last reported at 2018-Feb-18 17:53 UTC. Time now 2018-Feb-18 18:27 UTC.
Position N 39°40' W 074°02'.

Type: Tug. MMSI: 366359910.

Date/timePositionNaut miles runAvg speedWind from/ knotsBaromVisibWave heightAir tempDewpointWater temp
2018-Feb-18 17:53N 39°40' W 074°02'50 9.4
2018-Feb-18 12:35N 40°30' W 073°56'2 8.2
2018-Feb-18 12:21N 40°31' W 073°58'3 8.0
2018-Feb-18 12:00N 40°32' W 074°01'5 9.2
2018-Feb-18 11:30N 40°36' W 074°03'5 9.3
2018-Feb-18 10:59N 40°41' W 074°02'511.1
2018-Feb-18 10:31N 40°46' W 074°00'611.6
2018-Feb-18 10:00N 40°52' W 073°57'  
2018-Feb-15 16:54N 40°54' W 073°55'3 7.2
2018-Feb-15 16:30N 40°51' W 073°57'4 7.8
2018-Feb-15 16:00N 40°47' W 073°59'4 7.8
2018-Feb-15 15:30N 40°44' W 074°01'4 7.8
2018-Feb-15 15:00N 40°40' W 074°03'4 7.0
2018-Feb-15 14:30N 40°39' W 074°07'4 7.3
2018-Feb-15 14:00N 40°38' W 074°12'3 5.8
2018-Feb-15 13:29N 40°35' W 074°12'0 0.1
2018-Feb-15 11:50N 40°35' W 074°12'0 0.0
2018-Feb-15 09:38N 40°35' W 074°12'0 0.0
2018-Feb-15 08:20N 40°35' W 074°12'0 0.0
2018-Feb-15 07:56N 40°35' W 074°12'0 0.0
2018-Feb-15 07:26N 40°35' W 074°12'0 0.0
2018-Feb-15 04:50N 40°35' W 074°12'0 0.0
2018-Feb-15 04:14N 40°35' W 074°13'0 0.0
2018-Feb-15 03:53N 40°35' W 074°13'0 1.2
2018-Feb-15 03:30N 40°35' W 074°13'2 0.6
2018-Feb-15 00:12N 40°34' W 074°14'0 0.0
2018-Feb-14 23:45N 40°34' W 074°14'0 0.0
2018-Feb-14 23:30N 40°34' W 074°14'0 0.0
2018-Feb-14 22:59N 40°34' W 074°14'2 2.7
2018-Feb-14 22:17N 40°35' W 074°12'310.5
2018-Feb-14 21:59N 40°38' W 074°12'2 3.4
2018-Feb-14 21:30N 40°39' W 074°10'0 0.0
2018-Feb-14 21:00N 40°38' W 074°10'0 0.0
2018-Feb-14 20:30N 40°39' W 074°10'0 0.0
2018-Feb-14 20:00N 40°39' W 074°10'0 0.0
2018-Feb-14 19:30N 40°39' W 074°10'0 0.0
2018-Feb-14 19:00N 40°39' W 074°10'0 0.0
2018-Feb-14 18:30N 40°39' W 074°10'0 0.0
2018-Feb-14 18:00N 40°39' W 074°10'0 0.0
2018-Feb-14 17:30N 40°39' W 074°10'0 0.0
2018-Feb-14 17:00N 40°39' W 074°10'0 0.0
2018-Feb-14 16:30N 40°39' W 074°10'0 0.0
2018-Feb-14 16:00N 40°39' W 074°10'0 0.0
2018-Feb-14 15:30N 40°39' W 074°10'0 0.0
2018-Feb-14 15:00N 40°39' W 074°10'0 0.0
2018-Feb-14 14:30N 40°39' W 074°10'0 0.0
2018-Feb-14 14:00N 40°39' W 074°10'0 0.0
2018-Feb-14 13:30N 40°39' W 074°10'0 0.0
2018-Feb-14 12:58N 40°39' W 074°10'0 0.0
2018-Feb-14 12:30N 40°39' W 074°10'0 0.0
2018-Feb-14 12:00N 40°39' W 074°10'1 2.6
2018-Feb-14 11:30N 40°38' W 074°12'5 9.5
2018-Feb-14 10:59N 40°34' W 074°13'1 1.9
2018-Feb-14 10:29N 40°34' W 074°14'0 0.0
2018-Feb-14 09:59N 40°34' W 074°14'0 0.0
2018-Feb-14 09:28N 40°34' W 074°14'0 0.0
2018-Feb-14 09:00N 40°34' W 074°14'0 0.0
2018-Feb-14 08:26N 40°34' W 074°14'0 0.0
2018-Feb-14 07:59N 40°34' W 074°14'0 0.0
2018-Feb-14 07:30N 40°34' W 074°14'0 0.0
2018-Feb-14 06:58N 40°34' W 074°14'0 0.0
2018-Feb-14 06:30N 40°34' W 074°14'0 0.0
2018-Feb-14 05:59N 40°34' W 074°14'0 0.0
2018-Feb-14 05:30N 40°34' W 074°14'0 0.0
2018-Feb-14 04:59N 40°34' W 074°14'0 0.0
2018-Feb-14 04:28N 40°34' W 074°14'0 0.0
2018-Feb-14 03:59N 40°34' W 074°14'0 0.0
2018-Feb-14 03:28N 40°34' W 074°14'0 0.0
2018-Feb-14 03:00N 40°34' W 074°14'3 6.9
2018-Feb-14 02:30N 40°37' W 074°12'4 8.8
2018-Feb-14 02:00N 40°39' W 074°07'0 0.9
2018-Feb-14 01:30N 40°39' W 074°07'0 0.0
2018-Feb-14 01:00N 40°39' W 074°07'0 0.0
2018-Feb-14 00:30N 40°39' W 074°07'0 0.0
2018-Feb-13 23:59N 40°39' W 074°07'0 0.7
2018-Feb-13 23:30N 40°39' W 074°07'5 9.1
2018-Feb-13 23:00N 40°37' W 074°12'11 3.6
2018-Feb-13 19:58N 40°29' W 074°03'187 7.7
2018-Feb-12 19:48N 42°14' W 070°37'4 9.2
2018-Feb-12 19:24N 42°16' W 070°41'4 9.2
2018-Feb-12 18:56N 42°19' W 070°45'4 9.2
2018-Feb-12 18:30N 42°22' W 070°49'4 8.4
2018-Feb-12 17:59N 42°22' W 070°55'4 8.4
2018-Feb-12 17:28N 42°20' W 071°00'3 4.5
2018-Feb-12 16:51N 42°23' W 071°02'1 2.5
2018-Feb-12 16:29N 42°24' W 071°01'0 0.0
2018-Feb-12 15:52N 42°24' W 071°01'0 0.0
2018-Feb-12 15:31N 42°24' W 071°01'0 0.1
2018-Feb-12 15:00N 42°24' W 071°01'0 0.0
2018-Feb-12 14:30N 42°24' W 071°01'0 0.0
2018-Feb-12 14:00N 42°24' W 071°01'0 0.0
2018-Feb-12 13:30N 42°24' W 071°01'0 0.0
2018-Feb-12 13:00N 42°24' W 071°01'0 0.0
2018-Feb-12 12:30N 42°24' W 071°01'0 0.0
2018-Feb-12 12:00N 42°24' W 071°01'0 0.0
2018-Feb-12 11:30N 42°24' W 071°01'0 0.0
2018-Feb-12 11:00N 42°24' W 071°01'0 0.0
2018-Feb-12 10:30N 42°24' W 071°01'0 0.0
2018-Feb-12 10:00N 42°24' W 071°01'0 0.0
2018-Feb-12 09:30N 42°24' W 071°01'0 0.0
2018-Feb-12 09:00N 42°24' W 071°01'0 0.0
2018-Feb-12 08:30N 42°24' W 071°01'0 0.0
2018-Feb-12 08:01N 42°24' W 071°01'0 0.0
2018-Feb-12 07:30N 42°24' W 071°01'0 0.0
2018-Feb-12 07:00N 42°24' W 071°01'0 0.0
2018-Feb-12 06:31N 42°24' W 071°01'0 0.0
2018-Feb-12 06:00N 42°24' W 071°01'0 0.0
2018-Feb-12 05:30N 42°24' W 071°01'0 0.0
2018-Feb-12 05:01N 42°24' W 071°01'0 0.0
2018-Feb-12 04:30N 42°24' W 071°01'0 0.0
2018-Feb-12 04:01N 42°24' W 071°01'0 0.0
2018-Feb-12 03:30N 42°24' W 071°01'0 0.0
2018-Feb-12 03:00N 42°24' W 071°01'0 0.0
2018-Feb-12 02:31N 42°24' W 071°01'0 0.0
2018-Feb-12 02:00N 42°24' W 071°01'0 0.0
2018-Feb-12 01:31N 42°24' W 071°01'0 0.0
2018-Feb-12 01:01N 42°24' W 071°01'0 0.0
2018-Feb-12 00:30N 42°24' W 071°01'0 0.0
2018-Feb-12 00:01N 42°24' W 071°01'0 0.0
2018-Feb-11 23:27N 42°24' W 071°01'0 0.0
2018-Feb-11 22:59N 42°24' W 071°01'0 0.0
2018-Feb-11 22:30N 42°24' W 071°01'0 0.0
2018-Feb-11 22:00N 42°24' W 071°01'0 0.0
2018-Feb-11 21:31N 42°24' W 071°01'0 0.0
2018-Feb-11 21:00N 42°24' W 071°01'0 0.0
2018-Feb-11 20:30N 42°24' W 071°01'0 0.0
2018-Feb-11 20:00N 42°24' W 071°01'0 0.2
2018-Feb-11 19:29N 42°24' W 071°01'1 2.4
2018-Feb-11 18:58N 42°23' W 071°02'2 3.7
2018-Feb-11 18:28N 42°21' W 071°02'4 6.6
2018-Feb-11 17:54N 42°20' W 070°57'3 6.2
2018-Feb-11 17:24N 42°22' W 070°54'3 7.2
2018-Feb-11 17:01N 42°23' W 070°51'4 7.6
2018-Feb-11 16:31N 42°21' W 070°46'4 7.7
2018-Feb-11 16:01N 42°18' W 070°42'4 7.6
2018-Feb-11 15:29N 42°16' W 070°39'179 6.5
2018-Feb-10 11:56N 40°29' W 073°50'3 7.7
2018-Feb-10 11:30N 40°28' W 073°54'3 6.4
2018-Feb-10 11:00N 40°28' W 073°58'4 7.1
2018-Feb-10 10:29N 40°29' W 074°03'11 0.5
2018-Feb-09 13:00N 40°39' W 074°10'1 0.0
2018-Feb-08 20:00N 40°39' W 074°09'7 6.7
2018-Feb-08 19:00N 40°42' W 074°02'  

Dump ship's entire track history